首页
METAR-TAF:

METAR-TAF

机场 :

拉奥罗拉国际机场

瓜地馬拉, 危地马拉

纬度: 14-35N, 经度: 090-31W, 海拔: 1489米

当前天气观测

该预报发布于51分钟前的08:00 UTC
风速10节,风向
温度 16°C
湿度 94%
气压 1026 hPa
能见度10公里或以上
少量云层高于1400英尺

METAR: MGGT 230800Z 36010KT 9999 FEW014 16/15 Q1026 A3030

时间: 02:51 (08:51 UTC)

预报

预报有效从23日的 06点(UTC)到 24日的 06点(UTC)
风速3节,风向多变
能見度: 8000
少量云层高于1600英尺
短暂存在
从 23日的 06点(UTC)到 23日的 13点(UTC)
能見度: 5000
少量云层高于1400英尺
轻雾
成为
从 23日的 15点(UTC)到 23日的 17点(UTC)
风速8节,风向
天空无云
短暂存在
从 23日的 20点(UTC)到 23日的 24点(UTC)
少量云层高于2000英尺, 塔状积云.
成为
从 24日的 01点(UTC)到 24日的 03点(UTC)
风速3节,风向多变
少量云层高于1800英尺

TAF: MGGT 2306/2406 VRB03KT 8000 FEW016 TX27/2320Z TN15/2312Z TEMPO 2306/2313 5000 BR FEW014 BECMG 2315/2317 18008KT SKC TEMPO 2320/2324 FEW020TCU BECMG 2401/2403 VRB03KT FEW018

超过4000个机场的气象观测和天气预报(METAR&TAF报告)。

可查询的气象台以黄色和红色小点在地图上表示。

将鼠标移到小点上方,可查看气象台名称。

然后点击查看天气观测和预报。

如需切换地图:点击带黑十字的绿色按钮放大地图;点击带横线的绿色按钮缩小地图;或者点击绿色箭头查看邻近地区的地图。


METAR-TAF: